sensor_id;sensor_type;location;lat;lon;timestamp;P1;durP1;ratioP1;P2;durP2;ratioP2
68438;SDS011;55421;51.600;5.718;2022-09-28T00:01:20;5.20;;;3.90;;
68438;SDS011;55421;51.600;5.718;2022-09-28T00:03:49;6.20;;;3.90;;
68438;SDS011;55421;51.600;5.718;2022-09-28T00:06:20;4.30;;;3.70;;
68438;SDS011;55421;51.600;5.718;2022-09-28T00:08:49;4.00;;;3.60;;
68438;SDS011;55421;51.600;5.718;2022-09-28T00:11:18;7.00;;;3.80;;
68438;SDS011;55421;51.600;5.718;2022-09-28T00:13:51;5.20;;;3.60;;
68438;SDS011;55421;51.600;5.718;2022-09-28T00:16:20;5.40;;;4.40;;
68438;SDS011;55421;51.600;5.718;2022-09-28T00:18:49;6.10;;;4.70;;
68438;SDS011;55421;51.600;5.718;2022-09-28T00:21:19;8.10;;;5.40;;
68438;SDS011;55421;51.600;5.718;2022-09-28T00:23:51;5.30;;;4.80;;
68438;SDS011;55421;51.600;5.718;2022-09-28T00:26:47;7.80;;;5.00;;
68438;SDS011;55421;51.600;5.718;2022-09-28T00:29:36;7.60;;;5.20;;
68438;SDS011;55421;51.600;5.718;2022-09-28T00:32:09;7.80;;;5.70;;
68438;SDS011;55421;51.600;5.718;2022-09-28T00:34:39;8.60;;;5.80;;
68438;SDS011;55421;51.600;5.718;2022-09-28T00:37:08;8.20;;;6.30;;
68438;SDS011;55421;51.600;5.718;2022-09-28T00:39:35;9.30;;;7.00;;
68438;SDS011;55421;51.600;5.718;2022-09-28T00:42:10;9.20;;;6.20;;
68438;SDS011;55421;51.600;5.718;2022-09-28T00:44:57;7.00;;;6.20;;
68438;SDS011;55421;51.600;5.718;2022-09-28T00:47:49;10.70;;;6.40;;
68438;SDS011;55421;51.600;5.718;2022-09-28T00:50:32;8.70;;;6.10;;
68438;SDS011;55421;51.600;5.718;2022-09-28T00:53:10;10.90;;;6.60;;
68438;SDS011;55421;51.600;5.718;2022-09-28T00:55:47;9.80;;;7.20;;
68438;SDS011;55421;51.600;5.718;2022-09-28T00:58:25;10.70;;;7.70;;
68438;SDS011;55421;51.600;5.718;2022-09-28T01:00:55;9.20;;;7.20;;
68438;SDS011;55421;51.600;5.718;2022-09-28T01:03:24;11.70;;;6.80;;
68438;SDS011;55421;51.600;5.718;2022-09-28T01:05:52;10.30;;;7.20;;
68438;SDS011;55421;51.600;5.718;2022-09-28T01:08:22;8.50;;;6.90;;
68438;SDS011;55421;51.600;5.718;2022-09-28T01:10:53;9.40;;;7.00;;
68438;SDS011;55421;51.600;5.718;2022-09-28T01:13:20;13.20;;;7.60;;
68438;SDS011;55421;51.600;5.718;2022-09-28T01:16:43;10.80;;;7.60;;
68438;SDS011;55421;51.600;5.718;2022-09-28T01:25:23;9.80;;;6.70;;
68438;SDS011;55421;51.600;5.718;2022-09-28T01:28:17;8.60;;;6.20;;
68438;SDS011;55421;51.600;5.718;2022-09-28T01:30:52;11.30;;;6.90;;
68438;SDS011;55421;51.600;5.718;2022-09-28T01:33:31;15.60;;;7.80;;
68438;SDS011;55421;51.600;5.718;2022-09-28T01:36:33;10.80;;;7.60;;
68438;SDS011;55421;51.600;5.718;2022-09-28T01:39:14;8.10;;;6.60;;
68438;SDS011;55421;51.600;5.718;2022-09-28T01:41:48;9.50;;;6.80;;
68438;SDS011;55421;51.600;5.718;2022-09-28T01:44:19;9.40;;;6.40;;
68438;SDS011;55421;51.600;5.718;2022-09-28T01:46:49;7.70;;;6.90;;
68438;SDS011;55421;51.600;5.718;2022-09-28T01:49:30;8.50;;;6.90;;
68438;SDS011;55421;51.600;5.718;2022-09-28T01:52:11;10.40;;;7.10;;
68438;SDS011;55421;51.600;5.718;2022-09-28T01:54:56;8.20;;;5.90;;
68438;SDS011;55421;51.600;5.718;2022-09-28T02:00:13;7.80;;;6.20;;
68438;SDS011;55421;51.600;5.718;2022-09-28T02:03:08;9.10;;;6.40;;
68438;SDS011;55421;51.600;5.718;2022-09-28T02:05:47;8.10;;;6.80;;
68438;SDS011;55421;51.600;5.718;2022-09-28T02:08:39;8.50;;;5.90;;
68438;SDS011;55421;51.600;5.718;2022-09-28T02:11:15;8.70;;;5.50;;
68438;SDS011;55421;51.600;5.718;2022-09-28T02:13:58;6.80;;;5.40;;
68438;SDS011;55421;51.600;5.718;2022-09-28T02:16:41;8.90;;;5.70;;
68438;SDS011;55421;51.600;5.718;2022-09-28T02:19:33;10.40;;;6.80;;
68438;SDS011;55421;51.600;5.718;2022-09-28T02:22:10;9.40;;;6.80;;
68438;SDS011;55421;51.600;5.718;2022-09-28T02:24:51;9.50;;;6.20;;
68438;SDS011;55421;51.600;5.718;2022-09-28T02:27:35;8.00;;;6.20;;
68438;SDS011;55421;51.600;5.718;2022-09-28T02:30:06;8.00;;;6.00;;
68438;SDS011;55421;51.600;5.718;2022-09-28T02:32:36;7.90;;;5.90;;
68438;SDS011;55421;51.600;5.718;2022-09-28T02:35:11;10.00;;;6.90;;
68438;SDS011;55421;51.600;5.718;2022-09-28T02:37:39;11.50;;;7.40;;
68438;SDS011;55421;51.600;5.718;2022-09-28T02:42:58;10.70;;;7.50;;
68438;SDS011;55421;51.600;5.718;2022-09-28T02:45:35;9.40;;;7.30;;
68438;SDS011;55421;51.600;5.718;2022-09-28T02:48:21;8.30;;;6.90;;
68438;SDS011;55421;51.600;5.718;2022-09-28T02:51:04;10.30;;;8.00;;
68438;SDS011;55421;51.600;5.718;2022-09-28T02:53:52;12.50;;;9.00;;
68438;SDS011;55421;51.600;5.718;2022-09-28T03:02:26;10.40;;;8.00;;
68438;SDS011;55421;51.600;5.718;2022-09-28T03:07:36;10.70;;;8.30;;
68438;SDS011;55421;51.600;5.718;2022-09-28T03:12:47;12.50;;;8.40;;
68438;SDS011;55421;51.600;5.718;2022-09-28T03:15:31;9.60;;;7.00;;
68438;SDS011;55421;51.600;5.718;2022-09-28T03:17:59;8.60;;;7.10;;
68438;SDS011;55421;51.600;5.718;2022-09-28T03:20:28;10.90;;;7.30;;
68438;SDS011;55421;51.600;5.718;2022-09-28T03:22:56;14.70;;;8.50;;
68438;SDS011;55421;51.600;5.718;2022-09-28T03:25:22;12.20;;;8.60;;
68438;SDS011;55421;51.600;5.718;2022-09-28T03:27:49;10.10;;;7.90;;
68438;SDS011;55421;51.600;5.718;2022-09-28T03:30:15;12.00;;;7.10;;
68438;SDS011;55421;51.600;5.718;2022-09-28T03:32:42;12.40;;;6.50;;
68438;SDS011;55421;51.600;5.718;2022-09-28T03:35:10;10.70;;;6.80;;
68438;SDS011;55421;51.600;5.718;2022-09-28T03:37:37;13.60;;;7.30;;
68438;SDS011;55421;51.600;5.718;2022-09-28T03:40:03;9.70;;;7.10;;
68438;SDS011;55421;51.600;5.718;2022-09-28T03:45:01;8.10;;;6.20;;
68438;SDS011;55421;51.600;5.718;2022-09-28T03:47:28;10.20;;;5.70;;
68438;SDS011;55421;51.600;5.718;2022-09-28T03:49:54;8.50;;;6.10;;
68438;SDS011;55421;51.600;5.718;2022-09-28T03:52:21;8.50;;;6.20;;
68438;SDS011;55421;51.600;5.718;2022-09-28T03:54:47;8.80;;;6.60;;
68438;SDS011;55421;51.600;5.718;2022-09-28T03:57:14;11.10;;;6.50;;
68438;SDS011;55421;51.600;5.718;2022-09-28T03:59:40;8.00;;;5.20;;
68438;SDS011;55421;51.600;5.718;2022-09-28T04:02:07;6.90;;;5.30;;
68438;SDS011;55421;51.600;5.718;2022-09-28T04:04:33;9.20;;;5.10;;
68438;SDS011;55421;51.600;5.718;2022-09-28T04:07:00;5.70;;;4.90;;
68438;SDS011;55421;51.600;5.718;2022-09-28T04:09:26;9.30;;;5.60;;
68438;SDS011;55421;51.600;5.718;2022-09-28T04:11:53;8.00;;;5.50;;
68438;SDS011;55421;51.600;5.718;2022-09-28T04:14:19;6.10;;;4.90;;
68438;SDS011;55421;51.600;5.718;2022-09-28T04:16:45;7.80;;;4.80;;
68438;SDS011;55421;51.600;5.718;2022-09-28T04:19:13;5.60;;;4.30;;
68438;SDS011;55421;51.600;5.718;2022-09-28T04:21:40;6.10;;;4.20;;
68438;SDS011;55421;51.600;5.718;2022-09-28T04:24:08;5.30;;;4.10;;
68438;SDS011;55421;51.600;5.718;2022-09-28T04:26:35;5.80;;;4.20;;
68438;SDS011;55421;51.600;5.718;2022-09-28T04:29:02;5.70;;;3.90;;
68438;SDS011;55421;51.600;5.718;2022-09-28T04:31:46;6.50;;;4.10;;
68438;SDS011;55421;51.600;5.718;2022-09-28T04:34:19;5.70;;;3.70;;
68438;SDS011;55421;51.600;5.718;2022-09-28T04:36:47;6.90;;;3.40;;
68438;SDS011;55421;51.600;5.718;2022-09-28T04:39:15;5.30;;;3.70;;
68438;SDS011;55421;51.600;5.718;2022-09-28T04:41:46;8.90;;;4.00;;
68438;SDS011;55421;51.600;5.718;2022-09-28T04:44:13;7.10;;;3.90;;
68438;SDS011;55421;51.600;5.718;2022-09-28T04:46:40;6.40;;;3.30;;
68438;SDS011;55421;51.600;5.718;2022-09-28T04:49:08;4.60;;;3.20;;
68438;SDS011;55421;51.600;5.718;2022-09-28T04:51:35;4.10;;;2.90;;
68438;SDS011;55421;51.600;5.718;2022-09-28T04:54:02;3.40;;;3.10;;
68438;SDS011;55421;51.600;5.718;2022-09-28T04:56:28;3.30;;;2.90;;
68438;SDS011;55421;51.600;5.718;2022-09-28T04:58:55;6.00;;;3.50;;
68438;SDS011;55421;51.600;5.718;2022-09-28T05:01:21;5.60;;;2.70;;
68438;SDS011;55421;51.600;5.718;2022-09-28T05:03:49;3.20;;;2.80;;
68438;SDS011;55421;51.600;5.718;2022-09-28T05:06:16;4.40;;;2.50;;
68438;SDS011;55421;51.600;5.718;2022-09-28T05:08:43;6.30;;;2.60;;
68438;SDS011;55421;51.600;5.718;2022-09-28T05:11:12;4.10;;;2.60;;
68438;SDS011;55421;51.600;5.718;2022-09-28T05:13:44;3.90;;;2.70;;
68438;SDS011;55421;51.600;5.718;2022-09-28T05:16:12;3.80;;;2.40;;
68438;SDS011;55421;51.600;5.718;2022-09-28T05:18:41;3.40;;;2.20;;
68438;SDS011;55421;51.600;5.718;2022-09-28T05:21:10;3.60;;;2.40;;
68438;SDS011;55421;51.600;5.718;2022-09-28T05:23:38;2.30;;;2.10;;
68438;SDS011;55421;51.600;5.718;2022-09-28T05:26:06;5.10;;;2.40;;
68438;SDS011;55421;51.600;5.718;2022-09-28T05:28:33;3.20;;;2.40;;
68438;SDS011;55421;51.600;5.718;2022-09-28T05:31:01;2.90;;;2.60;;
68438;SDS011;55421;51.600;5.718;2022-09-28T05:33:29;4.10;;;2.30;;
68438;SDS011;55421;51.600;5.718;2022-09-28T05:35:57;4.00;;;2.10;;
68438;SDS011;55421;51.600;5.718;2022-09-28T05:38:24;2.40;;;2.20;;
68438;SDS011;55421;51.600;5.718;2022-09-28T05:40:51;2.40;;;1.80;;
68438;SDS011;55421;51.600;5.718;2022-09-28T05:43:18;2.20;;;2.00;;
68438;SDS011;55421;51.600;5.718;2022-09-28T05:45:44;5.80;;;2.20;;
68438;SDS011;55421;51.600;5.718;2022-09-28T05:48:11;2.60;;;1.90;;
68438;SDS011;55421;51.600;5.718;2022-09-28T05:50:37;2.10;;;1.90;;
68438;SDS011;55421;51.600;5.718;2022-09-28T05:53:06;7.30;;;2.20;;
68438;SDS011;55421;51.600;5.718;2022-09-28T05:55:35;2.90;;;1.90;;
68438;SDS011;55421;51.600;5.718;2022-09-28T05:58:05;3.10;;;1.50;;
68438;SDS011;55421;51.600;5.718;2022-09-28T06:00:32;3.70;;;2.10;;
68438;SDS011;55421;51.600;5.718;2022-09-28T06:03:05;2.00;;;1.70;;
68438;SDS011;55421;51.600;5.718;2022-09-28T06:05:34;4.50;;;1.90;;
68438;SDS011;55421;51.600;5.718;2022-09-28T06:08:02;1.80;;;1.70;;
68438;SDS011;55421;51.600;5.718;2022-09-28T06:10:32;2.00;;;1.50;;
68438;SDS011;55421;51.600;5.718;2022-09-28T06:12:59;2.20;;;1.60;;
68438;SDS011;55421;51.600;5.718;2022-09-28T06:15:28;5.10;;;1.70;;
68438;SDS011;55421;51.600;5.718;2022-09-28T06:18:01;2.30;;;1.90;;
68438;SDS011;55421;51.600;5.718;2022-09-28T06:20:34;4.70;;;1.80;;
68438;SDS011;55421;51.600;5.718;2022-09-28T06:23:02;4.30;;;1.50;;
68438;SDS011;55421;51.600;5.718;2022-09-28T06:25:29;1.60;;;1.40;;
68438;SDS011;55421;51.600;5.718;2022-09-28T06:27:58;4.00;;;1.60;;
68438;SDS011;55421;51.600;5.718;2022-09-28T06:30:45;2.90;;;1.50;;
68438;SDS011;55421;51.600;5.718;2022-09-28T06:33:13;2.00;;;1.60;;
68438;SDS011;55421;51.600;5.718;2022-09-28T06:35:40;1.70;;;1.30;;
68438;SDS011;55421;51.600;5.718;2022-09-28T06:38:08;7.80;;;1.60;;
68438;SDS011;55421;51.600;5.718;2022-09-28T06:40:35;4.20;;;1.40;;
68438;SDS011;55421;51.600;5.718;2022-09-28T06:43:04;2.00;;;1.10;;
68438;SDS011;55421;51.600;5.718;2022-09-28T06:45:36;2.50;;;1.40;;
68438;SDS011;55421;51.600;5.718;2022-09-28T06:48:05;2.30;;;1.50;;
68438;SDS011;55421;51.600;5.718;2022-09-28T06:50:38;1.60;;;1.40;;
68438;SDS011;55421;51.600;5.718;2022-09-28T06:53:07;1.60;;;1.50;;
68438;SDS011;55421;51.600;5.718;2022-09-28T06:55:41;1.50;;;1.40;;
68438;SDS011;55421;51.600;5.718;2022-09-28T06:58:13;4.80;;;1.50;;
68438;SDS011;55421;51.600;5.718;2022-09-28T07:00:42;1.60;;;1.30;;
68438;SDS011;55421;51.600;5.718;2022-09-28T07:03:12;4.40;;;1.70;;
68438;SDS011;55421;51.600;5.718;2022-09-28T07:05:43;4.40;;;2.00;;
68438;SDS011;55421;51.600;5.718;2022-09-28T07:08:20;2.00;;;1.70;;
68438;SDS011;55421;51.600;5.718;2022-09-28T07:10:50;2.20;;;2.00;;
68438;SDS011;55421;51.600;5.718;2022-09-28T07:13:23;2.20;;;1.90;;
68438;SDS011;55421;51.600;5.718;2022-09-28T07:15:55;2.60;;;1.80;;
68438;SDS011;55421;51.600;5.718;2022-09-28T07:18:23;3.70;;;2.00;;
68438;SDS011;55421;51.600;5.718;2022-09-28T07:20:50;3.30;;;2.20;;
68438;SDS011;55421;51.600;5.718;2022-09-28T07:23:17;2.90;;;2.20;;
68438;SDS011;55421;51.600;5.718;2022-09-28T07:25:44;4.60;;;2.30;;
68438;SDS011;55421;51.600;5.718;2022-09-28T07:28:13;5.00;;;1.90;;
68438;SDS011;55421;51.600;5.718;2022-09-28T07:30:39;3.70;;;2.10;;
68438;SDS011;55421;51.600;5.718;2022-09-28T07:33:08;2.80;;;2.20;;
68438;SDS011;55421;51.600;5.718;2022-09-28T07:35:37;8.20;;;2.60;;
68438;SDS011;55421;51.600;5.718;2022-09-28T07:38:05;6.50;;;3.00;;
68438;SDS011;55421;51.600;5.718;2022-09-28T07:40:34;5.50;;;3.10;;
68438;SDS011;55421;51.600;5.718;2022-09-28T07:43:20;4.10;;;2.60;;
68438;SDS011;55421;51.600;5.718;2022-09-28T07:45:49;2.90;;;2.40;;
68438;SDS011;55421;51.600;5.718;2022-09-28T07:48:20;4.90;;;2.40;;
68438;SDS011;55421;51.600;5.718;2022-09-28T07:53:22;3.80;;;2.60;;
68438;SDS011;55421;51.600;5.718;2022-09-28T07:55:51;3.40;;;3.00;;
68438;SDS011;55421;51.600;5.718;2022-09-28T07:58:19;3.50;;;3.00;;
68438;SDS011;55421;51.600;5.718;2022-09-28T08:00:47;5.00;;;3.30;;
68438;SDS011;55421;51.600;5.718;2022-09-28T08:03:16;4.60;;;3.00;;
68438;SDS011;55421;51.600;5.718;2022-09-28T08:05:44;4.90;;;3.00;;
68438;SDS011;55421;51.600;5.718;2022-09-28T08:08:12;4.60;;;2.70;;
68438;SDS011;55421;51.600;5.718;2022-09-28T08:10:42;4.60;;;3.00;;
68438;SDS011;55421;51.600;5.718;2022-09-28T08:13:09;4.80;;;3.60;;
68438;SDS011;55421;51.600;5.718;2022-09-28T08:15:43;4.90;;;3.80;;
68438;SDS011;55421;51.600;5.718;2022-09-28T08:18:10;7.20;;;4.20;;
68438;SDS011;55421;51.600;5.718;2022-09-28T08:20:36;5.40;;;3.90;;
68438;SDS011;55421;51.600;5.718;2022-09-28T08:23:22;3.90;;;3.30;;
68438;SDS011;55421;51.600;5.718;2022-09-28T08:25:50;8.60;;;3.30;;
68438;SDS011;55421;51.600;5.718;2022-09-28T08:28:21;3.20;;;2.90;;
68438;SDS011;55421;51.600;5.718;2022-09-28T08:30:49;3.80;;;3.20;;
68438;SDS011;55421;51.600;5.718;2022-09-28T08:33:18;4.60;;;3.70;;
68438;SDS011;55421;51.600;5.718;2022-09-28T08:35:47;4.50;;;3.50;;
68438;SDS011;55421;51.600;5.718;2022-09-28T08:38:19;7.90;;;3.40;;
68438;SDS011;55421;51.600;5.718;2022-09-28T08:40:58;6.10;;;3.30;;
68438;SDS011;55421;51.600;5.718;2022-09-28T08:43:56;4.90;;;3.20;;
68438;SDS011;55421;51.600;5.718;2022-09-28T08:46:38;4.40;;;2.70;;
68438;SDS011;55421;51.600;5.718;2022-09-28T08:49:19;3.20;;;2.80;;
68438;SDS011;55421;51.600;5.718;2022-09-28T08:52:00;5.00;;;3.00;;
68438;SDS011;55421;51.600;5.718;2022-09-28T08:54:46;4.60;;;3.10;;
68438;SDS011;55421;51.600;5.718;2022-09-28T08:57:24;9.60;;;3.40;;
68438;SDS011;55421;51.600;5.718;2022-09-28T08:59:57;3.70;;;3.20;;
68438;SDS011;55421;51.600;5.718;2022-09-28T09:02:33;6.60;;;3.50;;
68438;SDS011;55421;51.600;5.718;2022-09-28T09:05:09;7.30;;;3.60;;
68438;SDS011;55421;51.600;5.718;2022-09-28T09:20:46;4.10;;;3.70;;
68438;SDS011;55421;51.600;5.718;2022-09-28T09:23:41;7.00;;;4.00;;
68438;SDS011;55421;51.600;5.718;2022-09-28T09:26:35;5.00;;;3.50;;
68438;SDS011;55421;51.600;5.718;2022-09-28T09:29:25;5.10;;;2.90;;
68438;SDS011;55421;51.600;5.718;2022-09-28T09:32:58;5.30;;;2.80;;
68438;SDS011;55421;51.600;5.718;2022-09-28T09:35:20;7.30;;;4.10;;
68438;SDS011;55421;51.600;5.718;2022-09-28T09:38:23;3.80;;;3.20;;
68438;SDS011;55421;51.600;5.718;2022-09-28T09:41:34;2.80;;;2.60;;
68438;SDS011;55421;51.600;5.718;2022-09-28T09:46:59;3.10;;;2.80;;
68438;SDS011;55421;51.600;5.718;2022-09-28T09:49:41;2.80;;;2.50;;
68438;SDS011;55421;51.600;5.718;2022-09-28T09:52:33;3.60;;;2.70;;
68438;SDS011;55421;51.600;5.718;2022-09-28T09:55:18;5.00;;;2.90;;
68438;SDS011;55421;51.600;5.718;2022-09-28T09:57:59;3.30;;;3.00;;
68438;SDS011;55421;51.600;5.718;2022-09-28T10:00:31;2.60;;;2.40;;
68438;SDS011;55421;51.600;5.718;2022-09-28T10:02:59;3.40;;;2.50;;
68438;SDS011;55421;51.600;5.718;2022-09-28T10:05:29;4.40;;;3.10;;
68438;SDS011;55421;51.600;5.718;2022-09-28T10:10:32;2.50;;;2.30;;
68438;SDS011;55421;51.600;5.718;2022-09-28T10:13:01;3.50;;;2.30;;
68438;SDS011;55421;51.600;5.718;2022-09-28T10:15:30;4.10;;;3.00;;
68438;SDS011;55421;51.600;5.718;2022-09-28T10:18:09;3.70;;;2.90;;
68438;SDS011;55421;51.600;5.718;2022-09-28T10:20:40;3.10;;;2.40;;
68438;SDS011;55421;51.600;5.718;2022-09-28T10:23:25;5.90;;;2.60;;
68438;SDS011;55421;51.600;5.718;2022-09-28T10:26:05;3.20;;;2.80;;
68438;SDS011;55421;51.600;5.718;2022-09-28T10:28:44;2.80;;;2.60;;
68438;SDS011;55421;51.600;5.718;2022-09-28T10:34:05;3.00;;;1.70;;
68438;SDS011;55421;51.600;5.718;2022-09-28T10:36:44;3.50;;;2.00;;
68438;SDS011;55421;51.600;5.718;2022-09-28T10:39:48;3.50;;;2.20;;
68438;SDS011;55421;51.600;5.718;2022-09-28T10:42:25;3.60;;;2.30;;
68438;SDS011;55421;51.600;5.718;2022-09-28T10:47:28;3.40;;;2.00;;
68438;SDS011;55421;51.600;5.718;2022-09-28T10:49:58;5.70;;;2.30;;
68438;SDS011;55421;51.600;5.718;2022-09-28T10:55:29;3.70;;;1.80;;
68438;SDS011;55421;51.600;5.718;2022-09-28T11:00:29;3.70;;;1.40;;
68438;SDS011;55421;51.600;5.718;2022-09-28T11:03:23;2.30;;;1.50;;
68438;SDS011;55421;51.600;5.718;2022-09-28T11:05:54;1.90;;;1.50;;
68438;SDS011;55421;51.600;5.718;2022-09-28T11:08:30;3.50;;;1.60;;
68438;SDS011;55421;51.600;5.718;2022-09-28T11:11:19;3.10;;;1.10;;
68438;SDS011;55421;51.600;5.718;2022-09-28T11:13:49;3.30;;;1.30;;
68438;SDS011;55421;51.600;5.718;2022-09-28T11:16:32;2.60;;;1.30;;
68438;SDS011;55421;51.600;5.718;2022-09-28T11:19:25;3.10;;;1.20;;
68438;SDS011;55421;51.600;5.718;2022-09-28T11:21:53;2.30;;;0.90;;
68438;SDS011;55421;51.600;5.718;2022-09-28T11:24:21;1.20;;;0.80;;
68438;SDS011;55421;51.600;5.718;2022-09-28T11:26:53;1.40;;;0.80;;
68438;SDS011;55421;51.600;5.718;2022-09-28T11:29:42;2.10;;;1.30;;
68438;SDS011;55421;51.600;5.718;2022-09-28T11:32:12;4.20;;;1.30;;
68438;SDS011;55421;51.600;5.718;2022-09-28T11:34:44;1.60;;;1.30;;
68438;SDS011;55421;51.600;5.718;2022-09-28T11:37:36;2.20;;;1.50;;
68438;SDS011;55421;51.600;5.718;2022-09-28T11:40:43;2.10;;;1.30;;
68438;SDS011;55421;51.600;5.718;2022-09-28T11:48:54;3.90;;;1.70;;
68438;SDS011;55421;51.600;5.718;2022-09-28T11:51:30;1.70;;;1.30;;
68438;SDS011;55421;51.600;5.718;2022-09-28T11:54:15;2.80;;;1.30;;
68438;SDS011;55421;51.600;5.718;2022-09-28T11:56:47;2.20;;;1.30;;
68438;SDS011;55421;51.600;5.718;2022-09-28T12:02:09;2.30;;;1.70;;
68438;SDS011;55421;51.600;5.718;2022-09-28T12:04:45;1.60;;;1.50;;
68438;SDS011;55421;51.600;5.718;2022-09-28T12:07:24;3.40;;;1.60;;
68438;SDS011;55421;51.600;5.718;2022-09-28T12:09:59;1.70;;;1.40;;
68438;SDS011;55421;51.600;5.718;2022-09-28T12:15:58;4.30;;;2.00;;
68438;SDS011;55421;51.600;5.718;2022-09-28T12:18:37;1.90;;;1.70;;
68438;SDS011;55421;51.600;5.718;2022-09-28T12:21:46;2.50;;;1.80;;
68438;SDS011;55421;51.600;5.718;2022-09-28T12:24:26;3.80;;;1.80;;
68438;SDS011;55421;51.600;5.718;2022-09-28T12:27:03;3.00;;;1.70;;
68438;SDS011;55421;51.600;5.718;2022-09-28T12:29:40;3.60;;;1.60;;
68438;SDS011;55421;51.600;5.718;2022-09-28T12:32:27;4.70;;;1.40;;
68438;SDS011;55421;51.600;5.718;2022-09-28T12:35:12;1.30;;;1.00;;
68438;SDS011;55421;51.600;5.718;2022-09-28T12:40:56;7.90;;;3.80;;
68438;SDS011;55421;51.600;5.718;2022-09-28T12:49:16;2.20;;;1.20;;
68438;SDS011;55421;51.600;5.718;2022-09-28T12:52:34;2.80;;;1.30;;
68438;SDS011;55421;51.600;5.718;2022-09-28T12:55:28;2.00;;;1.50;;
68438;SDS011;55421;51.600;5.718;2022-09-28T13:04:09;6.50;;;2.40;;
68438;SDS011;55421;51.600;5.718;2022-09-28T13:06:55;1.80;;;1.70;;
68438;SDS011;55421;51.600;5.718;2022-09-28T13:09:40;2.30;;;1.90;;
68438;SDS011;55421;51.600;5.718;2022-09-28T13:15:52;3.60;;;2.50;;
68438;SDS011;55421;51.600;5.718;2022-09-28T13:18:34;2.70;;;2.10;;
68438;SDS011;55421;51.600;5.718;2022-09-28T13:24:04;4.90;;;3.40;;
68438;SDS011;55421;51.600;5.718;2022-09-28T13:29:10;4.60;;;1.80;;
68438;SDS011;55421;51.600;5.718;2022-09-28T13:31:58;4.40;;;1.90;;
68438;SDS011;55421;51.600;5.718;2022-09-28T13:34:31;3.20;;;1.80;;
68438;SDS011;55421;51.600;5.718;2022-09-28T13:43:05;1.90;;;1.30;;
68438;SDS011;55421;51.600;5.718;2022-09-28T13:48:12;2.30;;;1.20;;
68438;SDS011;55421;51.600;5.718;2022-09-28T13:53:52;2.10;;;1.00;;
68438;SDS011;55421;51.600;5.718;2022-09-28T13:56:56;1.80;;;1.00;;
68438;SDS011;55421;51.600;5.718;2022-09-28T14:00:00;1.90;;;0.50;;
68438;SDS011;55421;51.600;5.718;2022-09-28T14:02:48;1.00;;;0.50;;
68438;SDS011;55421;51.600;5.718;2022-09-28T14:07:57;1.00;;;0.50;;
68438;SDS011;55421;51.600;5.718;2022-09-28T14:10:45;0.50;;;0.40;;
68438;SDS011;55421;51.600;5.718;2022-09-28T14:18:47;0.40;;;0.40;;
68438;SDS011;55421;51.600;5.718;2022-09-28T14:24:49;0.40;;;0.40;;
68438;SDS011;55421;51.600;5.718;2022-09-28T14:32:54;0.90;;;0.30;;
68438;SDS011;55421;51.600;5.718;2022-09-28T14:35:47;0.50;;;0.40;;
68438;SDS011;55421;51.600;5.718;2022-09-28T14:38:53;0.40;;;0.30;;
68438;SDS011;55421;51.600;5.718;2022-09-28T14:41:40;0.40;;;0.40;;
68438;SDS011;55421;51.600;5.718;2022-09-28T14:44:10;1.00;;;0.40;;
68438;SDS011;55421;51.600;5.718;2022-09-28T14:54:19;2.20;;;0.60;;
68438;SDS011;55421;51.600;5.718;2022-09-28T14:59:24;0.70;;;0.70;;
68438;SDS011;55421;51.600;5.718;2022-09-28T15:01:59;1.60;;;0.60;;
68438;SDS011;55421;51.600;5.718;2022-09-28T15:04:33;2.00;;;0.80;;
68438;SDS011;55421;51.600;5.718;2022-09-28T15:07:04;1.60;;;0.50;;
68438;SDS011;55421;51.600;5.718;2022-09-28T15:09:35;1.70;;;0.60;;
68438;SDS011;55421;51.600;5.718;2022-09-28T15:12:05;0.50;;;0.50;;
68438;SDS011;55421;51.600;5.718;2022-09-28T15:14:46;0.60;;;0.60;;
68438;SDS011;55421;51.600;5.718;2022-09-28T15:17:20;2.60;;;0.60;;
68438;SDS011;55421;51.600;5.718;2022-09-28T15:22:47;1.00;;;0.40;;
68438;SDS011;55421;51.600;5.718;2022-09-28T15:25:17;0.90;;;0.80;;
68438;SDS011;55421;51.600;5.718;2022-09-28T15:30:28;1.70;;;0.70;;
68438;SDS011;55421;51.600;5.718;2022-09-28T15:32:59;1.20;;;1.10;;
68438;SDS011;55421;51.600;5.718;2022-09-28T15:35:51;0.50;;;0.50;;
68438;SDS011;55421;51.600;5.718;2022-09-28T15:38:24;1.00;;;0.70;;
68438;SDS011;55421;51.600;5.718;2022-09-28T15:40:51;1.90;;;0.80;;
68438;SDS011;55421;51.600;5.718;2022-09-28T15:46:04;1.40;;;0.80;;
68438;SDS011;55421;51.600;5.718;2022-09-28T15:48:49;3.20;;;1.00;;
68438;SDS011;55421;51.600;5.718;2022-09-28T15:51:22;0.80;;;0.80;;
68438;SDS011;55421;51.600;5.718;2022-09-28T15:53:58;1.30;;;0.80;;
68438;SDS011;55421;51.600;5.718;2022-09-28T15:56:27;1.00;;;0.80;;
68438;SDS011;55421;51.600;5.718;2022-09-28T16:01:43;2.90;;;0.80;;
68438;SDS011;55421;51.600;5.718;2022-09-28T16:09:57;1.00;;;0.70;;
68438;SDS011;55421;51.600;5.718;2022-09-28T16:15:06;1.70;;;1.10;;
68438;SDS011;55421;51.600;5.718;2022-09-28T16:17:37;2.50;;;0.70;;
68438;SDS011;55421;51.600;5.718;2022-09-28T16:20:19;4.10;;;1.20;;
68438;SDS011;55421;51.600;5.718;2022-09-28T16:22:48;3.90;;;1.40;;
68438;SDS011;55421;51.600;5.718;2022-09-28T16:25:18;1.30;;;0.90;;
68438;SDS011;55421;51.600;5.718;2022-09-28T16:27:52;1.90;;;0.90;;
68438;SDS011;55421;51.600;5.718;2022-09-28T16:30:28;1.70;;;0.90;;
68438;SDS011;55421;51.600;5.718;2022-09-28T16:33:03;1.10;;;0.80;;
68438;SDS011;55421;51.600;5.718;2022-09-28T16:40:39;1.80;;;1.00;;
68438;SDS011;55421;51.600;5.718;2022-09-28T16:43:22;1.20;;;1.00;;
68438;SDS011;55421;51.600;5.718;2022-09-28T16:45:54;2.00;;;1.00;;
68438;SDS011;55421;51.600;5.718;2022-09-28T16:48:28;2.00;;;1.70;;
68438;SDS011;55421;51.600;5.718;2022-09-28T16:50:57;2.30;;;2.10;;
68438;SDS011;55421;51.600;5.718;2022-09-28T16:53:24;1.30;;;1.20;;
68438;SDS011;55421;51.600;5.718;2022-09-28T16:56:11;1.20;;;0.90;;
68438;SDS011;55421;51.600;5.718;2022-09-28T16:58:37;1.50;;;1.10;;
68438;SDS011;55421;51.600;5.718;2022-09-28T17:01:05;1.60;;;1.00;;
68438;SDS011;55421;51.600;5.718;2022-09-28T17:03:36;1.20;;;1.10;;
68438;SDS011;55421;51.600;5.718;2022-09-28T17:06:03;1.40;;;1.10;;
68438;SDS011;55421;51.600;5.718;2022-09-28T17:08:31;2.70;;;1.30;;
68438;SDS011;55421;51.600;5.718;2022-09-28T17:11:00;3.50;;;1.30;;
68438;SDS011;55421;51.600;5.718;2022-09-28T17:13:30;1.50;;;1.40;;
68438;SDS011;55421;51.600;5.718;2022-09-28T17:16:01;1.30;;;1.20;;
68438;SDS011;55421;51.600;5.718;2022-09-28T17:18:31;1.80;;;1.10;;
68438;SDS011;55421;51.600;5.718;2022-09-28T17:21:01;1.30;;;1.00;;
68438;SDS011;55421;51.600;5.718;2022-09-28T17:23:29;1.20;;;0.70;;
68438;SDS011;55421;51.600;5.718;2022-09-28T17:25:56;1.30;;;0.70;;
68438;SDS011;55421;51.600;5.718;2022-09-28T17:28:33;1.00;;;0.90;;
68438;SDS011;55421;51.600;5.718;2022-09-28T17:31:03;1.30;;;0.90;;
68438;SDS011;55421;51.600;5.718;2022-09-28T17:33:31;2.40;;;1.30;;
68438;SDS011;55421;51.600;5.718;2022-09-28T17:35:59;2.60;;;1.30;;
68438;SDS011;55421;51.600;5.718;2022-09-28T17:38:27;3.20;;;1.70;;
68438;SDS011;55421;51.600;5.718;2022-09-28T17:40:54;2.50;;;2.00;;
68438;SDS011;55421;51.600;5.718;2022-09-28T17:43:20;3.80;;;1.90;;
68438;SDS011;55421;51.600;5.718;2022-09-28T17:45:48;6.40;;;1.90;;
68438;SDS011;55421;51.600;5.718;2022-09-28T17:48:17;4.10;;;1.80;;
68438;SDS011;55421;51.600;5.718;2022-09-28T17:50:49;10.70;;;2.10;;
68438;SDS011;55421;51.600;5.718;2022-09-28T17:53:16;4.00;;;1.90;;
68438;SDS011;55421;51.600;5.718;2022-09-28T17:55:43;2.70;;;1.80;;
68438;SDS011;55421;51.600;5.718;2022-09-28T17:58:16;3.10;;;1.80;;
68438;SDS011;55421;51.600;5.718;2022-09-28T18:00:45;4.70;;;1.50;;
68438;SDS011;55421;51.600;5.718;2022-09-28T18:03:19;2.00;;;1.80;;
68438;SDS011;55421;51.600;5.718;2022-09-28T18:05:48;2.60;;;1.90;;